الصفحة الرئيسية
METAR-TAF:

METAR-TAF

مطار :

مطار طوكيو هانيدا الدولي

طوكيو-Haneda, اليابان

دائرة عرض: 35-33N, خط طول: 139-47E, ارتفاع: 5 متر

مراقبة الطقس الحالي

تاريخ ووقت الإصدار 40 دقيقة قبل الساعة 18:00UTC
ريح 1 عقدةمن اتجاهات متغيرة
درجة الحرارة 11°درجة مئوية
الرطوبة 82%
ضغط 1027 hPa
الرؤية 10 كم أو أكثر
غيوم قليلة على ارتفاع 3000 قدم
غيوم مفككة على ارتفاع 6000 قدم

METAR: RJTT 041800Z VRB01KT 9999 FEW030 BKN060 11/08 Q1027 BECMG 36006KT RMK 1CU030 7SC060 A3035

زمن: 03:40 (18:40 UTC)

توقعات

تاريخ ووقت الإصدار 1ساعة و 35 دقيقة قبل الساعة 17:05UTC
التوقعات صالحة من04 الساعة 18 UTC إلى 06 الساعة 00 UTC
ريح 6 عقدة من الشمال
الرؤية 10 كم أو أكثر
غيوم قليلة على ارتفاع 2000 قدم
غيوم مفككة على ارتفاع 5000 قدم
مؤقت
من 05 الساعة 09 UTC إلى 05 الساعة 15 UTC
الرؤية: 4000 متر
مطر خفيف, غشاء

TAF: RJTT 041705Z 0418/0600 36006KT 9999 FEW020 BKN050 TEMPO 0509/0515 4000 -RA BR

أرصاد الطقس والتوقعات من أكثر من 4000 مطار (تقارير الطقس للمطار METAR والتنبؤ بالطقس بالمطارTAF).

المحطات المتاحة هي النقط الصفراء والحمراء على الخريطة.

حرك المؤشر فوق النقطة لمعرفة اسم المحطة.

ثم انقر لمعرفة أرصاد وتوقعات الطقس.

لتغيير الخارطة: اضغط على الأزرار الخضراء مع رمز الصليب الأسود للتكبير. على الزر الأخضر مع شرطة للتصغير، أو على الأسهم الخضراء للخرائط المجاورة.


METAR-TAF: